sensor_id;sensor_type;location;lat;lon;timestamp;temperature;humidity
66401;HTU21D;53211;45.040;38.788;2022-08-02T00:02:18;23.09;118.99
66401;HTU21D;53211;45.040;38.788;2022-08-02T00:04:44;23.11;118.99
66401;HTU21D;53211;45.040;38.788;2022-08-02T00:07:10;23.14;118.99
66401;HTU21D;53211;45.040;38.788;2022-08-02T00:09:36;23.16;118.99
66401;HTU21D;53211;45.040;38.788;2022-08-02T00:12:03;23.21;118.99
66401;HTU21D;53211;45.040;38.788;2022-08-02T00:14:29;23.24;118.99
66401;HTU21D;53211;45.040;38.788;2022-08-02T00:16:54;23.28;118.99
66401;HTU21D;53211;45.040;38.788;2022-08-02T00:19:20;23.28;118.99
66401;HTU21D;53211;45.040;38.788;2022-08-02T00:21:46;23.32;118.99
66401;HTU21D;53211;45.040;38.788;2022-08-02T00:24:12;23.32;118.99
66401;HTU21D;53211;45.040;38.788;2022-08-02T00:26:38;23.36;118.99
66401;HTU21D;53211;45.040;38.788;2022-08-02T00:29:04;23.39;118.99
66401;HTU21D;53211;45.040;38.788;2022-08-02T00:31:30;23.41;118.99
66401;HTU21D;53211;45.040;38.788;2022-08-02T00:33:56;23.43;118.99
66401;HTU21D;53211;45.040;38.788;2022-08-02T00:36:22;23.44;118.99
66401;HTU21D;53211;45.040;38.788;2022-08-02T00:38:47;23.47;118.99
66401;HTU21D;53211;45.040;38.788;2022-08-02T00:41:15;23.50;118.99
66401;HTU21D;53211;45.040;38.788;2022-08-02T00:43:42;23.52;118.99
66401;HTU21D;53211;45.040;38.788;2022-08-02T00:46:08;23.56;118.99
66401;HTU21D;53211;45.040;38.788;2022-08-02T00:48:34;23.56;118.99
66401;HTU21D;53211;45.040;38.788;2022-08-02T00:51:00;23.57;118.99
66401;HTU21D;53211;45.040;38.788;2022-08-02T00:53:25;23.62;118.99
66401;HTU21D;53211;45.040;38.788;2022-08-02T00:55:51;23.65;118.99
66401;HTU21D;53211;45.040;38.788;2022-08-02T00:58:17;23.65;118.99
66401;HTU21D;53211;45.040;38.788;2022-08-02T01:00:43;23.67;118.99
66401;HTU21D;53211;45.040;38.788;2022-08-02T01:03:09;23.69;118.99
66401;HTU21D;53211;45.040;38.788;2022-08-02T01:05:35;23.66;118.99
66401;HTU21D;53211;45.040;38.788;2022-08-02T01:08:01;23.61;118.99
66401;HTU21D;53211;45.040;38.788;2022-08-02T01:10:27;23.59;118.99
66401;HTU21D;53211;45.040;38.788;2022-08-02T01:12:53;23.55;118.99
66401;HTU21D;53211;45.040;38.788;2022-08-02T01:15:18;23.51;118.99
66401;HTU21D;53211;45.040;38.788;2022-08-02T01:17:49;23.46;118.99
66401;HTU21D;53211;45.040;38.788;2022-08-02T01:23:13;0.00;118.99
66401;HTU21D;53211;45.040;38.788;2022-08-02T01:40:52;23.42;118.99
66401;HTU21D;53211;45.040;38.788;2022-08-02T01:43:19;23.39;118.99
66401;HTU21D;53211;45.040;38.788;2022-08-02T01:45:46;23.35;118.99
66401;HTU21D;53211;45.040;38.788;2022-08-02T01:48:12;23.30;118.99
66401;HTU21D;53211;45.040;38.788;2022-08-02T01:50:39;23.26;118.99
66401;HTU21D;53211;45.040;38.788;2022-08-02T01:53:06;23.28;118.99
66401;HTU21D;53211;45.040;38.788;2022-08-02T01:55:42;23.27;118.99
66401;HTU21D;53211;45.040;38.788;2022-08-02T01:58:09;23.24;118.99
66401;HTU21D;53211;45.040;38.788;2022-08-02T02:00:39;23.21;118.99
66401;HTU21D;53211;45.040;38.788;2022-08-02T02:03:07;23.15;118.99
66401;HTU21D;53211;45.040;38.788;2022-08-02T02:05:35;23.12;0.00
66401;HTU21D;53211;45.040;38.788;2022-08-02T02:08:01;23.12;118.99
66401;HTU21D;53211;45.040;38.788;2022-08-02T02:10:30;23.10;118.99
66401;HTU21D;53211;45.040;38.788;2022-08-02T02:12:59;23.02;118.99
66401;HTU21D;53211;45.040;38.788;2022-08-02T02:15:25;22.99;118.99
66401;HTU21D;53211;45.040;38.788;2022-08-02T02:17:52;22.97;118.99
66401;HTU21D;53211;45.040;38.788;2022-08-02T02:20:20;22.93;118.99
66401;HTU21D;53211;45.040;38.788;2022-08-02T02:22:46;22.92;118.99
66401;HTU21D;53211;45.040;38.788;2022-08-02T02:25:13;22.91;118.99
66401;HTU21D;53211;45.040;38.788;2022-08-02T02:27:42;22.90;118.99
66401;HTU21D;53211;45.040;38.788;2022-08-02T02:30:11;22.87;118.99
66401;HTU21D;53211;45.040;38.788;2022-08-02T02:32:37;22.84;118.99
66401;HTU21D;53211;45.040;38.788;2022-08-02T02:35:03;22.83;118.99
66401;HTU21D;53211;45.040;38.788;2022-08-02T02:37:30;22.84;118.99
66401;HTU21D;53211;45.040;38.788;2022-08-02T02:39:56;22.84;118.99
66401;HTU21D;53211;45.040;38.788;2022-08-02T02:42:23;22.83;118.99
66401;HTU21D;53211;45.040;38.788;2022-08-02T02:44:51;22.84;118.99
66401;HTU21D;53211;45.040;38.788;2022-08-02T02:47:18;22.87;118.99
66401;HTU21D;53211;45.040;38.788;2022-08-02T02:49:45;22.90;118.99
66401;HTU21D;53211;45.040;38.788;2022-08-02T02:52:12;22.95;118.99
66401;HTU21D;53211;45.040;38.788;2022-08-02T02:54:39;22.95;118.99
66401;HTU21D;53211;45.040;38.788;2022-08-02T02:57:06;22.97;118.99
66401;HTU21D;53211;45.040;38.788;2022-08-02T02:59:35;23.02;118.99
66401;HTU21D;53211;45.040;38.788;2022-08-02T03:02:01;23.07;118.99
66401;HTU21D;53211;45.040;38.788;2022-08-02T03:04:28;23.12;118.99
66401;HTU21D;53211;45.040;38.788;2022-08-02T03:06:54;23.17;118.99
66401;HTU21D;53211;45.040;38.788;2022-08-02T03:09:20;23.26;118.99
66401;HTU21D;53211;45.040;38.788;2022-08-02T03:11:46;23.36;118.99
66401;HTU21D;53211;45.040;38.788;2022-08-02T03:14:12;23.43;118.99
66401;HTU21D;53211;45.040;38.788;2022-08-02T03:16:45;23.52;118.99
66401;HTU21D;53211;45.040;38.788;2022-08-02T03:19:12;23.61;118.99
66401;HTU21D;53211;45.040;38.788;2022-08-02T03:21:38;23.67;118.99
66401;HTU21D;53211;45.040;38.788;2022-08-02T03:24:04;23.72;118.99
66401;HTU21D;53211;45.040;38.788;2022-08-02T03:26:30;23.74;118.99
66401;HTU21D;53211;45.040;38.788;2022-08-02T03:28:55;23.76;118.99
66401;HTU21D;53211;45.040;38.788;2022-08-02T03:31:21;23.80;118.99
66401;HTU21D;53211;45.040;38.788;2022-08-02T03:33:47;23.83;118.99
66401;HTU21D;53211;45.040;38.788;2022-08-02T03:36:14;23.88;118.99
66401;HTU21D;53211;45.040;38.788;2022-08-02T03:38:41;23.96;118.99
66401;HTU21D;53211;45.040;38.788;2022-08-02T03:41:09;23.99;118.99
66401;HTU21D;53211;45.040;38.788;2022-08-02T03:43:35;24.05;118.99
66401;HTU21D;53211;45.040;38.788;2022-08-02T03:46:02;24.10;118.99
66401;HTU21D;53211;45.040;38.788;2022-08-02T03:48:29;24.18;118.99
66401;HTU21D;53211;45.040;38.788;2022-08-02T03:50:55;24.28;118.99
66401;HTU21D;53211;45.040;38.788;2022-08-02T03:53:21;24.34;118.99
66401;HTU21D;53211;45.040;38.788;2022-08-02T03:55:47;24.40;118.99
66401;HTU21D;53211;45.040;38.788;2022-08-02T03:58:18;24.47;118.99
66401;HTU21D;53211;45.040;38.788;2022-08-02T04:00:44;24.51;118.99
66401;HTU21D;53211;45.040;38.788;2022-08-02T04:03:10;24.56;118.99
66401;HTU21D;53211;45.040;38.788;2022-08-02T04:05:36;24.63;118.99
66401;HTU21D;53211;45.040;38.788;2022-08-02T04:08:02;24.68;118.99
66401;HTU21D;53211;45.040;38.788;2022-08-02T04:10:28;24.72;118.99
66401;HTU21D;53211;45.040;38.788;2022-08-02T04:12:54;24.79;118.99
66401;HTU21D;53211;45.040;38.788;2022-08-02T04:15:20;24.87;118.99
66401;HTU21D;53211;45.040;38.788;2022-08-02T04:17:52;24.98;118.99
66401;HTU21D;53211;45.040;38.788;2022-08-02T04:20:20;25.10;118.99
66401;HTU21D;53211;45.040;38.788;2022-08-02T04:25:12;25.27;118.99
66401;HTU21D;53211;45.040;38.788;2022-08-02T04:27:38;25.33;118.99
66401;HTU21D;53211;45.040;38.788;2022-08-02T04:30:05;25.39;118.99
66401;HTU21D;53211;45.040;38.788;2022-08-02T04:32:31;25.45;118.99
66401;HTU21D;53211;45.040;38.788;2022-08-02T04:34:57;25.48;118.99
66401;HTU21D;53211;45.040;38.788;2022-08-02T04:37:24;25.78;0.00
66401;HTU21D;53211;45.040;38.788;2022-08-02T04:39:50;25.53;118.99
66401;HTU21D;53211;45.040;38.788;2022-08-02T04:42:22;25.58;118.99
66401;HTU21D;53211;45.040;38.788;2022-08-02T04:44:48;25.65;118.99
66401;HTU21D;53211;45.040;38.788;2022-08-02T04:47:14;25.74;118.99
66401;HTU21D;53211;45.040;38.788;2022-08-02T04:49:40;25.84;118.99
66401;HTU21D;53211;45.040;38.788;2022-08-02T04:52:06;25.94;118.99
66401;HTU21D;53211;45.040;38.788;2022-08-02T04:54:32;26.06;118.99
66401;HTU21D;53211;45.040;38.788;2022-08-02T04:56:58;26.20;118.99
66401;HTU21D;53211;45.040;38.788;2022-08-02T04:59:23;26.33;118.99
66401;HTU21D;53211;45.040;38.788;2022-08-02T05:01:49;26.48;118.99
66401;HTU21D;53211;45.040;38.788;2022-08-02T05:04:15;26.63;118.99
66401;HTU21D;53211;45.040;38.788;2022-08-02T05:06:41;26.75;118.99
66401;HTU21D;53211;45.040;38.788;2022-08-02T05:09:07;26.90;118.99
66401;HTU21D;53211;45.040;38.788;2022-08-02T05:11:33;27.04;118.99
66401;HTU21D;53211;45.040;38.788;2022-08-02T05:13:59;27.17;118.99
66401;HTU21D;53211;45.040;38.788;2022-08-02T05:16:25;27.31;118.99
66401;HTU21D;53211;45.040;38.788;2022-08-02T05:18:51;27.43;118.99
66401;HTU21D;53211;45.040;38.788;2022-08-02T05:21:17;27.51;118.99
66401;HTU21D;53211;45.040;38.788;2022-08-02T05:23:43;27.56;118.99
66401;HTU21D;53211;45.040;38.788;2022-08-02T05:26:08;27.64;118.99
66401;HTU21D;53211;45.040;38.788;2022-08-02T05:28:34;27.70;118.99
66401;HTU21D;53211;45.040;38.788;2022-08-02T05:31:00;27.75;118.99
66401;HTU21D;53211;45.040;38.788;2022-08-02T05:33:26;27.85;118.99
66401;HTU21D;53211;45.040;38.788;2022-08-02T05:35:52;27.87;118.99
66401;HTU21D;53211;45.040;38.788;2022-08-02T05:38:18;27.89;118.99
66401;HTU21D;53211;45.040;38.788;2022-08-02T05:40:43;28.64;118.99
66401;HTU21D;53211;45.040;38.788;2022-08-02T05:43:10;27.89;118.99
66401;HTU21D;53211;45.040;38.788;2022-08-02T05:45:35;27.94;118.99
66401;HTU21D;53211;45.040;38.788;2022-08-02T05:48:01;28.01;118.99
66401;HTU21D;53211;45.040;38.788;2022-08-02T05:50:27;28.12;118.99
66401;HTU21D;53211;45.040;38.788;2022-08-02T05:53:03;28.25;118.99
66401;HTU21D;53211;45.040;38.788;2022-08-02T05:55:33;28.38;118.99
66401;HTU21D;53211;45.040;38.788;2022-08-02T05:58:10;28.50;118.99
66401;HTU21D;53211;45.040;38.788;2022-08-02T06:00:38;28.62;118.99
66401;HTU21D;53211;45.040;38.788;2022-08-02T06:05:43;28.83;118.99
66401;HTU21D;53211;45.040;38.788;2022-08-02T06:08:12;28.97;118.99
66401;HTU21D;53211;45.040;38.788;2022-08-02T06:10:38;29.08;118.99
66401;HTU21D;53211;45.040;38.788;2022-08-02T06:13:08;29.19;118.99
66401;HTU21D;53211;45.040;38.788;2022-08-02T06:15:38;29.27;118.99
66401;HTU21D;53211;45.040;38.788;2022-08-02T06:18:04;29.32;118.99
66401;HTU21D;53211;45.040;38.788;2022-08-02T06:20:31;29.35;118.99
66401;HTU21D;53211;45.040;38.788;2022-08-02T06:23:03;29.35;118.99
66401;HTU21D;53211;45.040;38.788;2022-08-02T06:25:29;29.31;118.99
66401;HTU21D;53211;45.040;38.788;2022-08-02T06:27:55;29.26;118.99
66401;HTU21D;53211;45.040;38.788;2022-08-02T06:30:22;29.27;118.99
66401;HTU21D;53211;45.040;38.788;2022-08-02T06:32:51;29.23;118.99
66401;HTU21D;53211;45.040;38.788;2022-08-02T06:35:17;29.23;118.99
66401;HTU21D;53211;45.040;38.788;2022-08-02T06:37:44;29.20;118.99
66401;HTU21D;53211;45.040;38.788;2022-08-02T06:43:10;29.16;118.99
66401;HTU21D;53211;45.040;38.788;2022-08-02T06:45:38;29.17;118.99
66401;HTU21D;53211;45.040;38.788;2022-08-02T06:48:04;29.16;118.99
66401;HTU21D;53211;45.040;38.788;2022-08-02T06:50:30;29.14;118.99
66401;HTU21D;53211;45.040;38.788;2022-08-02T06:52:56;29.18;118.99
66401;HTU21D;53211;45.040;38.788;2022-08-02T06:55:22;29.19;118.99
66401;HTU21D;53211;45.040;38.788;2022-08-02T06:57:48;29.20;118.99
66401;HTU21D;53211;45.040;38.788;2022-08-02T07:00:13;29.19;118.99
66401;HTU21D;53211;45.040;38.788;2022-08-02T07:02:39;29.21;118.99
66401;HTU21D;53211;45.040;38.788;2022-08-02T07:05:05;29.30;118.99
66401;HTU21D;53211;45.040;38.788;2022-08-02T07:07:31;29.32;118.99
66401;HTU21D;53211;45.040;38.788;2022-08-02T07:09:58;29.33;118.99
66401;HTU21D;53211;45.040;38.788;2022-08-02T07:12:24;29.31;118.99
66401;HTU21D;53211;45.040;38.788;2022-08-02T07:14:50;29.30;118.99
66401;HTU21D;53211;45.040;38.788;2022-08-02T07:17:15;29.30;118.99
66401;HTU21D;53211;45.040;38.788;2022-08-02T07:19:41;29.33;118.99
66401;HTU21D;53211;45.040;38.788;2022-08-02T07:22:07;29.33;118.99
66401;HTU21D;53211;45.040;38.788;2022-08-02T07:24:33;29.32;118.99
66401;HTU21D;53211;45.040;38.788;2022-08-02T07:26:59;29.35;118.99
66401;HTU21D;53211;45.040;38.788;2022-08-02T07:29:25;29.34;118.99
66401;HTU21D;53211;45.040;38.788;2022-08-02T07:31:51;29.36;118.99
66401;HTU21D;53211;45.040;38.788;2022-08-02T07:34:17;29.35;118.99
66401;HTU21D;53211;45.040;38.788;2022-08-02T07:36:43;29.36;118.99
66401;HTU21D;53211;45.040;38.788;2022-08-02T07:39:08;29.39;118.99
66401;HTU21D;53211;45.040;38.788;2022-08-02T07:41:34;29.42;118.99
66401;HTU21D;53211;45.040;38.788;2022-08-02T07:44:00;29.51;118.99
66401;HTU21D;53211;45.040;38.788;2022-08-02T07:46:26;29.56;118.99
66401;HTU21D;53211;45.040;38.788;2022-08-02T07:48:52;29.59;118.99
66401;HTU21D;53211;45.040;38.788;2022-08-02T07:51:20;29.64;118.99
66401;HTU21D;53211;45.040;38.788;2022-08-02T07:53:46;29.71;118.99
66401;HTU21D;53211;45.040;38.788;2022-08-02T07:56:12;29.77;118.99
66401;HTU21D;53211;45.040;38.788;2022-08-02T07:58:39;29.85;118.99
66401;HTU21D;53211;45.040;38.788;2022-08-02T08:01:05;29.96;118.99
66401;HTU21D;53211;45.040;38.788;2022-08-02T08:03:35;30.10;118.99
66401;HTU21D;53211;45.040;38.788;2022-08-02T08:06:01;30.27;118.99
66401;HTU21D;53211;45.040;38.788;2022-08-02T08:08:26;30.41;118.99
66401;HTU21D;53211;45.040;38.788;2022-08-02T08:10:52;30.53;118.99
66401;HTU21D;53211;45.040;38.788;2022-08-02T08:13:18;30.69;118.99
66401;HTU21D;53211;45.040;38.788;2022-08-02T08:15:44;30.79;118.99
66401;HTU21D;53211;45.040;38.788;2022-08-02T08:18:10;30.84;118.99
66401;HTU21D;53211;45.040;38.788;2022-08-02T08:20:36;30.91;118.99
66401;HTU21D;53211;45.040;38.788;2022-08-02T08:23:20;31.00;118.99
66401;HTU21D;53211;45.040;38.788;2022-08-02T08:28:31;31.10;118.99
66401;HTU21D;53211;45.040;38.788;2022-08-02T08:30:57;31.11;118.99
66401;HTU21D;53211;45.040;38.788;2022-08-02T08:33:22;31.18;118.99
66401;HTU21D;53211;45.040;38.788;2022-08-02T08:35:48;31.27;118.99
66401;HTU21D;53211;45.040;38.788;2022-08-02T08:38:14;31.29;118.99
66401;HTU21D;53211;45.040;38.788;2022-08-02T08:40:40;31.28;118.99
66401;HTU21D;53211;45.040;38.788;2022-08-02T08:43:06;31.31;118.99
66401;HTU21D;53211;45.040;38.788;2022-08-02T08:45:32;31.36;118.99
66401;HTU21D;53211;45.040;38.788;2022-08-02T08:47:59;31.37;118.99
66401;HTU21D;53211;45.040;38.788;2022-08-02T08:50:25;31.41;118.99
66401;HTU21D;53211;45.040;38.788;2022-08-02T08:53:02;31.48;118.99
66401;HTU21D;53211;45.040;38.788;2022-08-02T08:55:28;31.57;118.99
66401;HTU21D;53211;45.040;38.788;2022-08-02T08:57:54;31.66;118.99
66401;HTU21D;53211;45.040;38.788;2022-08-02T09:00:21;31.74;118.99
66401;HTU21D;53211;45.040;38.788;2022-08-02T09:02:47;31.87;118.99
66401;HTU21D;53211;45.040;38.788;2022-08-02T09:05:14;32.00;118.99
66401;HTU21D;53211;45.040;38.788;2022-08-02T09:07:40;32.11;118.99
66401;HTU21D;53211;45.040;38.788;2022-08-02T09:15:36;32.48;118.99
66401;HTU21D;53211;45.040;38.788;2022-08-02T09:18:03;32.59;118.99
66401;HTU21D;53211;45.040;38.788;2022-08-02T09:20:31;32.71;118.99
66401;HTU21D;53211;45.040;38.788;2022-08-02T09:23:07;32.87;118.99
66401;HTU21D;53211;45.040;38.788;2022-08-02T09:25:33;32.90;118.99
66401;HTU21D;53211;45.040;38.788;2022-08-02T09:27:59;33.00;118.99
66401;HTU21D;53211;45.040;38.788;2022-08-02T09:30:25;32.97;118.99
66401;HTU21D;53211;45.040;38.788;2022-08-02T09:32:51;33.03;118.99
66401;HTU21D;53211;45.040;38.788;2022-08-02T09:35:32;33.13;118.99
66401;HTU21D;53211;45.040;38.788;2022-08-02T09:38:08;33.20;118.99
66401;HTU21D;53211;45.040;38.788;2022-08-02T09:40:35;33.32;118.99
66401;HTU21D;53211;45.040;38.788;2022-08-02T09:43:01;33.47;118.99
66401;HTU21D;53211;45.040;38.788;2022-08-02T09:45:31;33.60;118.99
66401;HTU21D;53211;45.040;38.788;2022-08-02T09:48:02;33.77;118.99
66401;HTU21D;53211;45.040;38.788;2022-08-02T09:50:30;33.86;118.99
66401;HTU21D;53211;45.040;38.788;2022-08-02T09:52:56;33.92;118.99
66401;HTU21D;53211;45.040;38.788;2022-08-02T09:55:23;33.94;118.99
66401;HTU21D;53211;45.040;38.788;2022-08-02T09:57:49;33.97;118.99
66401;HTU21D;53211;45.040;38.788;2022-08-02T10:00:15;34.04;118.99
66401;HTU21D;53211;45.040;38.788;2022-08-02T10:05:28;34.02;118.99
66401;HTU21D;53211;45.040;38.788;2022-08-02T10:07:54;33.97;118.99
66401;HTU21D;53211;45.040;38.788;2022-08-02T10:10:22;33.96;118.99
66401;HTU21D;53211;45.040;38.788;2022-08-02T10:12:48;33.99;118.99
66401;HTU21D;53211;45.040;38.788;2022-08-02T10:15:14;33.99;118.99
66401;HTU21D;53211;45.040;38.788;2022-08-02T10:17:40;34.14;118.99
66401;HTU21D;53211;45.040;38.788;2022-08-02T10:20:08;33.87;114.64
66401;HTU21D;53211;45.040;38.788;2022-08-02T10:22:34;33.85;113.79
66401;HTU21D;53211;45.040;38.788;2022-08-02T10:25:00;33.76;114.03
66401;HTU21D;53211;45.040;38.788;2022-08-02T10:27:27;33.52;116.98
66401;HTU21D;53211;45.040;38.788;2022-08-02T10:29:54;33.51;117.44
66401;HTU21D;53211;45.040;38.788;2022-08-02T10:32:24;33.46;115.88
66401;HTU21D;53211;45.040;38.788;2022-08-02T10:34:53;33.42;115.19
66401;HTU21D;53211;45.040;38.788;2022-08-02T10:37:19;33.38;114.30
66401;HTU21D;53211;45.040;38.788;2022-08-02T10:39:45;33.55;115.36
66401;HTU21D;53211;45.040;38.788;2022-08-02T10:42:12;33.89;113.82
66401;HTU21D;53211;45.040;38.788;2022-08-02T10:44:38;34.27;116.85
66401;HTU21D;53211;45.040;38.788;2022-08-02T10:49:58;34.81;110.55
66401;HTU21D;53211;45.040;38.788;2022-08-02T10:52:27;35.12;109.85
66401;HTU21D;53211;45.040;38.788;2022-08-02T10:54:57;35.31;104.18
66401;HTU21D;53211;45.040;38.788;2022-08-02T10:57:27;35.35;100.20
66401;HTU21D;53211;45.040;38.788;2022-08-02T10:59:56;35.40;98.82
66401;HTU21D;53211;45.040;38.788;2022-08-02T11:02:58;35.55;96.81
66401;HTU21D;53211;45.040;38.788;2022-08-02T11:05:26;35.63;95.02
66401;HTU21D;53211;45.040;38.788;2022-08-02T11:07:52;35.23;108.25
66401;HTU21D;53211;45.040;38.788;2022-08-02T11:13:12;34.61;104.03
66401;HTU21D;53211;45.040;38.788;2022-08-02T11:18:17;34.67;98.87
66401;HTU21D;53211;45.040;38.788;2022-08-02T11:20:43;34.39;107.82
66401;HTU21D;53211;45.040;38.788;2022-08-02T11:23:37;33.94;104.10
66401;HTU21D;53211;45.040;38.788;2022-08-02T11:29:07;32.96;112.81
66401;HTU21D;53211;45.040;38.788;2022-08-02T11:31:40;32.38;109.79
66401;HTU21D;53211;45.040;38.788;2022-08-02T11:34:06;31.95;109.91
66401;HTU21D;53211;45.040;38.788;2022-08-02T11:36:32;32.04;116.99
66401;HTU21D;53211;45.040;38.788;2022-08-02T11:39:07;31.66;112.97
66401;HTU21D;53211;45.040;38.788;2022-08-02T11:41:34;31.69;113.99
66401;HTU21D;53211;45.040;38.788;2022-08-02T11:43:59;32.41;112.99
66401;HTU21D;53211;45.040;38.788;2022-08-02T11:46:25;33.40;108.78
66401;HTU21D;53211;45.040;38.788;2022-08-02T11:48:51;34.41;107.92
66401;HTU21D;53211;45.040;38.788;2022-08-02T11:51:17;35.38;86.03
66401;HTU21D;53211;45.040;38.788;2022-08-02T11:53:47;36.08;79.88
66401;HTU21D;53211;45.040;38.788;2022-08-02T11:56:15;36.63;88.97
66401;HTU21D;53211;45.040;38.788;2022-08-02T11:58:58;37.36;88.73
66401;HTU21D;53211;45.040;38.788;2022-08-02T12:01:25;38.35;83.35
66401;HTU21D;53211;45.040;38.788;2022-08-02T12:03:51;38.92;79.62
66401;HTU21D;53211;45.040;38.788;2022-08-02T12:06:17;38.69;77.87
66401;HTU21D;53211;45.040;38.788;2022-08-02T12:08:43;38.93;76.49
66401;HTU21D;53211;45.040;38.788;2022-08-02T12:11:09;39.51;73.83
66401;HTU21D;53211;45.040;38.788;2022-08-02T12:13:41;39.80;67.81
66401;HTU21D;53211;45.040;38.788;2022-08-02T12:16:09;39.15;68.62
66401;HTU21D;53211;45.040;38.788;2022-08-02T12:18:55;39.34;70.40
66401;HTU21D;53211;45.040;38.788;2022-08-02T12:21:39;40.66;68.00
66401;HTU21D;53211;45.040;38.788;2022-08-02T12:24:05;41.99;65.05
66401;HTU21D;53211;45.040;38.788;2022-08-02T12:26:39;43.18;61.42
66401;HTU21D;53211;45.040;38.788;2022-08-02T12:29:05;44.07;55.39
66401;HTU21D;53211;45.040;38.788;2022-08-02T12:31:44;44.80;54.82
66401;HTU21D;53211;45.040;38.788;2022-08-02T12:34:16;45.73;53.24
66401;HTU21D;53211;45.040;38.788;2022-08-02T12:36:43;46.32;51.03
66401;HTU21D;53211;45.040;38.788;2022-08-02T12:39:31;47.01;50.08
66401;HTU21D;53211;45.040;38.788;2022-08-02T12:41:57;46.78;49.71
66401;HTU21D;53211;45.040;38.788;2022-08-02T12:44:23;46.36;49.92
66401;HTU21D;53211;45.040;38.788;2022-08-02T12:47:02;46.03;50.24
66401;HTU21D;53211;45.040;38.788;2022-08-02T12:49:29;45.40;49.60
66401;HTU21D;53211;45.040;38.788;2022-08-02T12:51:55;45.33;49.91
66401;HTU21D;53211;45.040;38.788;2022-08-02T12:54:25;45.13;37.98
66401;HTU21D;53211;45.040;38.788;2022-08-02T12:56:51;44.76;48.89
66401;HTU21D;53211;45.040;38.788;2022-08-02T12:59:31;44.55;50.72
66401;HTU21D;53211;45.040;38.788;2022-08-02T13:02:02;44.07;50.88
66401;HTU21D;53211;45.040;38.788;2022-08-02T13:04:28;43.51;46.97
66401;HTU21D;53211;45.040;38.788;2022-08-02T13:06:54;42.49;52.60
66401;HTU21D;53211;45.040;38.788;2022-08-02T13:09:20;41.49;48.25
66401;HTU21D;53211;45.040;38.788;2022-08-02T13:11:47;40.47;42.29
66401;HTU21D;53211;45.040;38.788;2022-08-02T13:14:13;40.76;44.62
66401;HTU21D;53211;45.040;38.788;2022-08-02T13:16:39;41.17;53.50
66401;HTU21D;53211;45.040;38.788;2022-08-02T13:19:05;41.59;49.44
66401;HTU21D;53211;45.040;38.788;2022-08-02T13:21:31;41.65;51.37
66401;HTU21D;53211;45.040;38.788;2022-08-02T13:23:57;41.58;51.78
66401;HTU21D;53211;45.040;38.788;2022-08-02T13:26:23;41.22;43.45
66401;HTU21D;53211;45.040;38.788;2022-08-02T13:28:49;41.46;50.14
66401;HTU21D;53211;45.040;38.788;2022-08-02T13:31:14;41.71;53.06
66401;HTU21D;53211;45.040;38.788;2022-08-02T13:33:40;41.14;45.09
66401;HTU21D;53211;45.040;38.788;2022-08-02T13:36:06;41.65;54.91
66401;HTU21D;53211;45.040;38.788;2022-08-02T13:38:32;41.95;55.33
66401;HTU21D;53211;45.040;38.788;2022-08-02T13:40:58;42.25;54.23
66401;HTU21D;53211;45.040;38.788;2022-08-02T13:43:33;42.52;55.77
66401;HTU21D;53211;45.040;38.788;2022-08-02T13:46:00;42.79;54.37
66401;HTU21D;53211;45.040;38.788;2022-08-02T13:48:41;43.09;53.79
66401;HTU21D;53211;45.040;38.788;2022-08-02T13:51:06;42.91;46.41
66401;HTU21D;53211;45.040;38.788;2022-08-02T13:53:39;41.96;48.48
66401;HTU21D;53211;45.040;38.788;2022-08-02T13:56:05;40.87;46.46
66401;HTU21D;53211;45.040;38.788;2022-08-02T13:58:31;40.45;46.21
66401;HTU21D;53211;45.040;38.788;2022-08-02T14:00:57;40.41;47.20
66401;HTU21D;53211;45.040;38.788;2022-08-02T14:03:23;40.81;54.82
66401;HTU21D;53211;45.040;38.788;2022-08-02T14:05:49;40.26;55.27
66401;HTU21D;53211;45.040;38.788;2022-08-02T14:08:18;39.94;54.81
66401;HTU21D;53211;45.040;38.788;2022-08-02T14:10:45;39.66;56.39
66401;HTU21D;53211;45.040;38.788;2022-08-02T14:13:11;39.84;54.82
66401;HTU21D;53211;45.040;38.788;2022-08-02T14:15:37;39.70;52.04
66401;HTU21D;53211;45.040;38.788;2022-08-02T14:18:03;39.22;47.34
66401;HTU21D;53211;45.040;38.788;2022-08-02T14:20:29;38.80;50.50
66401;HTU21D;53211;45.040;38.788;2022-08-02T14:22:55;37.67;49.52
66401;HTU21D;53211;45.040;38.788;2022-08-02T14:25:21;37.30;51.69
66401;HTU21D;53211;45.040;38.788;2022-08-02T14:27:46;36.72;52.48
66401;HTU21D;53211;45.040;38.788;2022-08-02T14:30:12;36.17;53.56
66401;HTU21D;53211;45.040;38.788;2022-08-02T14:32:39;35.79;54.19
66401;HTU21D;53211;45.040;38.788;2022-08-02T14:35:04;35.34;55.21
66401;HTU21D;53211;45.040;38.788;2022-08-02T14:37:30;34.90;55.82
66401;HTU21D;53211;45.040;38.788;2022-08-02T14:39:57;34.59;56.97
66401;HTU21D;53211;45.040;38.788;2022-08-02T14:42:23;34.37;57.75
66401;HTU21D;53211;45.040;38.788;2022-08-02T14:44:49;34.20;57.96
66401;HTU21D;53211;45.040;38.788;2022-08-02T14:47:15;34.07;58.45
66401;HTU21D;53211;45.040;38.788;2022-08-02T14:49:41;33.92;59.05
66401;HTU21D;53211;45.040;38.788;2022-08-02T14:52:07;33.68;59.76
66401;HTU21D;53211;45.040;38.788;2022-08-02T14:54:32;33.46;60.83
66401;HTU21D;53211;45.040;38.788;2022-08-02T14:56:59;33.60;60.38
66401;HTU21D;53211;45.040;38.788;2022-08-02T14:59:25;33.49;60.80
66401;HTU21D;53211;45.040;38.788;2022-08-02T15:01:51;33.43;61.12
66401;HTU21D;53211;45.040;38.788;2022-08-02T15:04:17;33.42;61.34
66401;HTU21D;53211;45.040;38.788;2022-08-02T15:06:43;33.33;60.64
66401;HTU21D;53211;45.040;38.788;2022-08-02T15:09:09;33.30;61.38
66401;HTU21D;53211;45.040;38.788;2022-08-02T15:11:34;33.31;61.18
66401;HTU21D;53211;45.040;38.788;2022-08-02T15:14:02;33.31;61.04
66401;HTU21D;53211;45.040;38.788;2022-08-02T15:16:28;33.32;61.54
66401;HTU21D;53211;45.040;38.788;2022-08-02T15:19:03;33.28;61.50
66401;HTU21D;53211;45.040;38.788;2022-08-02T15:21:41;33.14;61.79
66401;HTU21D;53211;45.040;38.788;2022-08-02T15:24:07;32.99;62.03
66401;HTU21D;53211;45.040;38.788;2022-08-02T15:26:33;32.89;62.89
66401;HTU21D;53211;45.040;38.788;2022-08-02T15:28:58;32.66;63.24
66401;HTU21D;53211;45.040;38.788;2022-08-02T15:31:24;32.52;63.78
66401;HTU21D;53211;45.040;38.788;2022-08-02T15:33:50;32.28;64.22
66401;HTU21D;53211;45.040;38.788;2022-08-02T15:36:16;32.01;64.77
66401;HTU21D;53211;45.040;38.788;2022-08-02T15:38:42;31.74;65.42
66401;HTU21D;53211;45.040;38.788;2022-08-02T15:41:08;31.50;65.98
66401;HTU21D;53211;45.040;38.788;2022-08-02T15:43:34;31.21;66.14